Time;durP1;ratioP1;P1;durP2;ratioP2;P2;SDS_P1;SDS_P2;PMS_P1;PMS_P2;Temp;Humidity;BMP_temperature;BMP_pressure;BME280_temperature;BME280_humidity;BME280_pressure;Samples;Min_cycle;Max_cycle;Signal;HPM_P1;HPM_P2
2023/07/04 00:00:05;;;;;;;15.35;7.97;;;19.90;94.90;;;;;;4978588;28;20226;-75
2023/07/04 00:02:57;;;;;;;17.42;8.38;;;19.80;94.00;;;;;;4980538;28;20282;-76
2023/07/04 00:05:49;;;;;;;14.88;7.82;;;19.80;94.30;;;;;;4981371;28;20234;-74
2023/07/04 00:08:42;;;;;;;15.43;8.38;;;19.80;93.90;;;;;;4960409;28;20231;-75
2023/07/04 00:11:31;;;;;;;15.98;7.90;;;19.80;94.20;;;;;;4974308;28;20235;-76
2023/07/04 00:14:20;;;;;;;16.00;7.13;;;19.70;94.30;;;;;;4980009;28;21038;-75
2023/07/04 00:17:09;;;;;;;18.42;7.63;;;19.70;93.60;;;;;;4994915;28;20227;-76
2023/07/04 00:19:57;;;;;;;16.38;7.93;;;19.70;93.40;;;;;;4985420;28;20579;-75
2023/07/04 00:22:47;;;;;;;15.98;7.45;;;19.80;93.70;;;;;;4985006;28;20701;-76
2023/07/04 00:25:37;;;;;;;17.50;7.85;;;19.80;94.00;;;;;;4965540;28;20761;-75
2023/07/04 00:28:26;;;;;;;17.02;7.97;;;19.80;93.80;;;;;;4965728;28;20234;-76
2023/07/04 00:31:17;;;;;;;17.73;8.25;;;19.80;93.50;;;;;;4988223;28;20237;-75
2023/07/04 00:34:06;;;;;;;13.63;7.53;;;19.80;93.70;;;;;;4981822;28;20370;-74
2023/07/04 00:36:59;;;;;;;13.77;7.40;;;19.70;93.60;;;;;;4997536;28;20297;-75
2023/07/04 00:39:48;;;;;;;21.23;8.18;;;19.70;94.20;;;;;;4977436;28;20607;-76
2023/07/04 00:42:41;;;;;;;13.90;7.40;;;19.80;94.20;;;;;;4972016;28;20231;-75
2023/07/04 00:45:42;;;;;;;14.68;7.95;;;19.90;96.40;;;;;;4968172;28;20816;-75
2023/07/04 00:48:35;;;;;;;14.48;7.90;;;19.90;95.30;;;;;;4986409;28;20223;-73
2023/07/04 00:51:24;;;;;;;18.83;8.18;;;19.80;95.10;;;;;;4982077;28;20305;-73
2023/07/04 00:54:15;;;;;;;12.75;7.78;;;19.90;95.80;;;;;;4978212;28;20223;-75
2023/07/04 00:57:06;;;;;;;16.48;7.85;;;19.90;94.90;;;;;;4982139;28;20242;-73
2023/07/04 01:00:00;;;;;;;13.85;7.53;;;19.90;94.70;;;;;;4984885;28;20215;-73
2023/07/04 01:02:51;;;;;;;17.00;7.05;;;19.80;94.20;;;;;;4977867;28;20214;-72
2023/07/04 01:05:47;;;;;;;12.50;7.20;;;19.80;93.60;;;;;;4992134;28;20687;-73
2023/07/04 01:08:40;;;;;;;16.00;7.35;;;19.70;93.60;;;;;;4971775;28;20231;-72
2023/07/04 01:11:33;;;;;;;16.25;7.78;;;19.70;94.70;;;;;;4988550;28;20229;-75
2023/07/04 01:14:24;;;;;;;12.80;7.22;;;19.70;94.00;;;;;;4970473;28;20614;-75
2023/07/04 01:17:15;;;;;;;12.23;7.22;;;19.70;93.70;;;;;;4981511;28;20234;-74
2023/07/04 01:20:07;;;;;;;12.43;6.85;;;19.60;93.70;;;;;;4980002;28;20618;-75
2023/07/04 01:23:04;;;;;;;13.07;7.20;;;19.60;94.00;;;;;;4996336;28;20227;-74
2023/07/04 01:26:00;;;;;;;18.00;8.05;;;19.60;93.80;;;;;;4968023;28;20227;-74
2023/07/04 01:28:53;;;;;;;19.60;7.43;;;19.60;93.60;;;;;;4978059;28;20219;-74
2023/07/04 01:31:43;;;;;;;14.77;7.50;;;19.50;93.80;;;;;;4987654;28;20812;-71
2023/07/04 01:34:33;;;;;;;12.88;7.25;;;19.60;93.90;;;;;;4979804;28;20227;-73
2023/07/04 01:37:22;;;;;;;15.80;7.60;;;19.60;94.00;;;;;;4972712;28;20302;-71
2023/07/04 01:40:12;;;;;;;14.65;7.60;;;19.60;93.80;;;;;;4996363;28;20235;-73
2023/07/04 01:43:02;;;;;;;14.07;7.50;;;19.50;93.80;;;;;;4973592;28;20255;-73
2023/07/04 01:45:52;;;;;;;18.17;7.60;;;19.60;93.70;;;;;;4972588;28;20565;-72
2023/07/04 01:48:44;;;;;;;14.48;7.35;;;19.50;93.70;;;;;;4980196;28;20250;-72
2023/07/04 01:51:36;;;;;;;15.07;7.50;;;19.60;94.00;;;;;;4969603;28;20227;-71
2023/07/04 01:54:25;;;;;;;15.02;7.55;;;19.60;93.70;;;;;;4994214;28;20317;-72
2023/07/04 01:57:16;;;;;;;13.32;7.68;;;19.60;94.60;;;;;;4982561;28;20302;-72
2023/07/04 02:00:08;;;;;;;14.52;7.95;;;19.50;94.20;;;;;;4985451;28;20599;-74
2023/07/04 02:03:17;;;;;;;15.43;7.28;;;19.40;95.20;;;;;;4977483;28;20255;-72
2023/07/04 02:06:07;;;;;;;13.70;7.80;;;19.50;94.50;;;;;;4978495;28;20313;-75
2023/07/04 02:08:58;;;;;;;16.45;7.40;;;19.50;95.40;;;;;;4994869;28;20227;-72
2023/07/04 02:11:46;;;;;;;19.73;8.02;;;19.50;95.10;;;;;;4985570;28;20369;-73
2023/07/04 02:14:40;;;;;;;17.23;8.27;;;19.50;94.20;;;;;;4982301;28;20215;-74
2023/07/04 02:17:29;;;;;;;11.52;7.40;;;19.50;94.30;;;;;;4971054;28;20223;-74
2023/07/04 02:20:20;;;;;;;14.50;8.27;;;19.40;94.20;;;;;;4976643;28;20224;-73
2023/07/04 02:23:10;;;;;;;17.25;7.95;;;19.50;94.90;;;;;;4982256;28;20257;-73
2023/07/04 02:26:03;;;;;;;17.70;8.55;;;19.50;94.40;;;;;;4984270;28;20719;-74
2023/07/04 02:28:52;;;;;;;20.83;8.85;;;19.50;94.20;;;;;;4986416;28;20255;-74
2023/07/04 02:31:42;;;;;;;19.23;9.05;;;19.40;94.10;;;;;;4977411;28;20348;-74
2023/07/04 02:34:31;;;;;;;16.92;8.60;;;19.40;94.60;;;;;;4982408;28;20766;-74
2023/07/04 02:37:22;;;;;;;22.50;8.60;;;19.40;94.30;;;;;;4977129;28;20951;-74
2023/07/04 02:40:11;;;;;;;15.02;8.00;;;19.40;94.40;;;;;;4979004;28;20218;-73
2023/07/04 02:43:00;;;;;;;23.35;9.02;;;19.40;94.60;;;;;;4990693;28;20222;-73
2023/07/04 02:45:50;;;;;;;19.42;8.05;;;19.50;94.10;;;;;;4981035;28;20239;-73
2023/07/04 02:48:42;;;;;;;17.88;7.65;;;19.40;93.90;;;;;;4996751;28;20548;-72
2023/07/04 02:51:32;;;;;;;17.85;7.75;;;19.40;93.80;;;;;;4978783;28;20785;-73
2023/07/04 02:54:23;;;;;;;15.45;8.20;;;19.30;94.10;;;;;;4981079;28;20250;-72
2023/07/04 02:57:14;;;;;;;19.58;8.38;;;19.30;94.40;;;;;;4981840;28;20228;-72
2023/07/04 03:00:06;;;;;;;15.93;8.07;;;19.30;94.10;;;;;;4973287;28;20313;-73
2023/07/04 03:02:56;;;;;;;17.50;8.25;;;19.30;94.50;;;;;;4979110;28;20226;-71
2023/07/04 03:05:47;;;;;;;16.77;7.78;;;19.30;94.20;;;;;;4978249;28;20784;-71
2023/07/04 03:08:36;;;;;;;16.75;8.07;;;19.30;94.20;;;;;;4987164;28;20357;-73
2023/07/04 03:11:27;;;;;;;18.35;8.13;;;19.30;94.60;;;;;;4999557;28;20223;-72
2023/07/04 03:14:19;;;;;;;17.70;8.55;;;19.40;94.70;;;;;;4982427;28;20253;-71
2023/07/04 03:17:09;;;;;;;16.15;7.70;;;19.40;94.90;;;;;;4979103;28;20227;-72
2023/07/04 03:20:04;;;;;;;13.15;7.97;;;19.50;94.60;;;;;;4991183;28;20232;-72
2023/07/04 03:22:54;;;;;;;15.20;8.25;;;19.50;94.50;;;;;;4976175;28;20851;-75
2023/07/04 03:25:44;;;;;;;15.32;7.80;;;19.50;94.60;;;;;;4986451;28;20222;-75
2023/07/04 03:28:36;;;;;;;18.23;8.80;;;19.50;94.20;;;;;;4976355;28;20219;-73
2023/07/04 03:31:25;;;;;;;20.55;8.20;;;19.40;94.20;;;;;;4981538;28;20219;-73
2023/07/04 03:34:14;;;;;;;18.67;8.07;;;19.40;94.10;;;;;;4984867;28;20346;-73
2023/07/04 03:37:04;;;;;;;19.27;7.60;;;19.40;94.40;;;;;;4987579;28;20226;-72
2023/07/04 03:39:53;;;;;;;16.42;7.93;;;19.40;94.10;;;;;;4978969;28;20229;-74
2023/07/04 03:42:42;;;;;;;15.27;7.82;;;19.50;94.90;;;;;;4976348;28;20682;-75
2023/07/04 03:45:33;;;;;;;18.02;7.82;;;19.50;94.30;;;;;;4975048;28;20233;-74
2023/07/04 03:48:22;;;;;;;16.33;8.00;;;19.60;94.80;;;;;;4978779;28;20234;-74
2023/07/04 03:51:12;;;;;;;15.20;7.80;;;19.70;95.70;;;;;;4999905;28;20365;-74
2023/07/04 03:54:02;;;;;;;16.70;7.78;;;19.60;94.60;;;;;;4984946;28;20220;-73
2023/07/04 03:56:50;;;;;;;17.75;7.93;;;19.60;94.70;;;;;;4985679;28;20233;-73
2023/07/04 03:59:39;;;;;;;15.00;7.47;;;19.60;94.20;;;;;;4983669;28;20673;-73
2023/07/04 04:02:30;;;;;;;18.25;7.63;;;19.50;94.40;;;;;;4986679;28;20223;-73
2023/07/04 04:05:23;;;;;;;15.32;8.05;;;19.70;95.00;;;;;;4979687;28;20729;-75
2023/07/04 04:08:14;;;;;;;13.73;7.60;;;19.70;95.20;;;;;;4985155;28;20353;-74
2023/07/04 04:11:03;;;;;;;14.70;7.70;;;19.80;96.20;;;;;;4984475;28;20227;-74
2023/07/04 04:13:52;;;;;;;13.60;7.40;;;20.10;95.90;;;;;;4988871;28;20378;-75
2023/07/04 04:16:41;;;;;;;16.88;8.25;;;20.10;95.60;;;;;;4997210;28;20223;-75
2023/07/04 04:19:31;;;;;;;13.35;7.55;;;20.10;95.30;;;;;;4987910;28;20242;-73
2023/07/04 04:22:20;;;;;;;13.40;7.35;;;20.00;96.20;;;;;;4990434;28;20238;-73
2023/07/04 04:25:10;;;;;;;18.00;7.68;;;20.20;95.80;;;;;;4975089;28;20240;-73
2023/07/04 04:27:59;;;;;;;17.02;7.22;;;20.30;95.90;;;;;;4979233;28;20230;-72
2023/07/04 04:30:48;;;;;;;15.90;8.05;;;20.40;95.80;;;;;;4993127;28;20223;-70
2023/07/04 04:33:37;;;;;;;14.98;7.22;;;20.50;94.30;;;;;;4982490;28;20313;-70
2023/07/04 04:36:27;;;;;;;16.30;7.43;;;20.50;94.40;;;;;;4986327;28;20243;-72
2023/07/04 04:39:16;;;;;;;13.27;7.53;;;20.60;94.00;;;;;;4966464;28;20240;-73
2023/07/04 04:42:06;;;;;;;15.35;7.05;;;20.70;93.90;;;;;;4973219;28;20749;-73
2023/07/04 04:44:55;;;;;;;19.45;8.40;;;20.80;93.20;;;;;;4984216;28;20227;-73
2023/07/04 04:47:52;;;;;;;13.75;7.03;;;20.90;92.90;;;;;;4982918;28;20644;-73
2023/07/04 04:50:46;;;;;;;17.67;6.90;;;21.10;92.90;;;;;;4972922;28;20222;-73
2023/07/04 04:53:37;;;;;;;13.02;6.97;;;21.20;92.50;;;;;;4979996;28;20743;-73
2023/07/04 04:56:26;;;;;;;19.83;6.63;;;21.20;92.70;;;;;;4978317;28;20231;-71
2023/07/04 04:59:15;;;;;;;15.18;7.45;;;21.30;92.20;;;;;;4983880;28;20230;-72
2023/07/04 05:02:04;;;;;;;14.07;6.38;;;21.40;92.60;;;;;;4977944;28;20228;-73
2023/07/04 05:04:58;;;;;;;19.30;6.60;;;21.50;93.30;;;;;;4992066;28;20321;-71
2023/07/04 05:07:50;;;;;;;13.10;6.68;;;21.70;92.70;;;;;;4983935;28;20223;-72
2023/07/04 05:10:40;;;;;;;15.55;6.93;;;21.70;92.70;;;;;;4969084;28;20233;-73
2023/07/04 05:13:29;;;;;;;15.65;6.15;;;21.80;91.40;;;;;;4998574;28;20233;-74
2023/07/04 05:16:20;;;;;;;17.98;6.80;;;21.80;92.40;;;;;;4983131;28;20264;-72
2023/07/04 05:19:09;;;;;;;15.38;5.93;;;22.00;92.40;;;;;;4979871;28;20342;-73
2023/07/04 05:21:59;;;;;;;16.38;7.40;;;22.10;92.50;;;;;;4984004;28;20906;-73
2023/07/04 05:24:48;;;;;;;16.20;6.07;;;22.20;91.60;;;;;;4978372;28;20230;-73
2023/07/04 05:27:39;;;;;;;18.73;6.10;;;22.30;90.40;;;;;;4972384;28;20309;-72
2023/07/04 05:30:27;;;;;;;14.57;5.60;;;22.40;91.90;;;;;;4988788;28;20707;-75
2023/07/04 05:33:16;;;;;;;14.35;6.03;;;22.50;90.60;;;;;;4984067;28;20239;-75
2023/07/04 05:36:07;;;;;;;12.10;5.72;;;22.50;89.90;;;;;;4983846;28;20218;-74
2023/07/04 05:38:59;;;;;;;17.85;5.72;;;22.60;88.30;;;;;;4981276;28;20234;-75
2023/07/04 05:41:49;;;;;;;14.68;4.90;;;22.80;88.90;;;;;;4977514;28;20339;-73
2023/07/04 05:44:39;;;;;;;10.75;5.03;;;23.00;84.90;;;;;;4971203;28;20227;-75
2023/07/04 05:47:28;;;;;;;12.65;5.25;;;23.00;85.50;;;;;;4972443;28;20234;-75
2023/07/04 05:50:17;;;;;;;16.58;5.50;;;23.00;85.50;;;;;;4976093;28;20702;-75
2023/07/04 05:53:06;;;;;;;14.68;5.15;;;23.10;85.10;;;;;;4973500;28;20218;-73
2023/07/04 05:56:06;;;;;;;15.48;5.20;;;23.20;84.90;;;;;;4994086;28;20698;-77
2023/07/04 05:58:56;;;;;;;13.02;5.38;;;23.30;84.80;;;;;;4981391;28;20218;-72
2023/07/04 06:01:50;;;;;;;12.70;5.15;;;23.40;85.10;;;;;;4975573;28;20277;-73
2023/07/04 06:04:39;;;;;;;11.45;5.10;;;23.40;89.60;;;;;;4982029;28;20595;-76
2023/07/04 06:07:31;;;;;;;15.35;4.93;;;23.50;82.90;;;;;;4990508;28;20239;-77
2023/07/04 06:10:20;;;;;;;12.38;4.63;;;23.60;84.00;;;;;;4977248;28;20292;-73
2023/07/04 06:13:09;;;;;;;10.65;4.68;;;23.60;82.80;;;;;;4982692;28;20223;-73
2023/07/04 06:16:02;;;;;;;12.55;4.25;;;23.70;79.20;;;;;;4974243;28;20246;-72
2023/07/04 06:18:52;;;;;;;17.02;4.32;;;23.70;83.00;;;;;;4975380;28;20255;-72
2023/07/04 06:21:41;;;;;;;11.23;4.70;;;23.80;81.50;;;;;;4974841;28;20242;-72
2023/07/04 06:24:32;;;;;;;20.55;4.40;;;24.00;80.70;;;;;;4973472;28;20226;-77
2023/07/04 06:27:21;;;;;;;10.40;4.45;;;23.90;80.30;;;;;;4977262;28;20271;-77
2023/07/04 06:30:12;;;;;;;16.48;4.70;;;24.00;80.00;;;;;;4983138;28;20301;-77
2023/07/04 06:33:03;;;;;;;11.32;4.50;;;24.00;79.00;;;;;;4989192;28;20254;-77
2023/07/04 06:35:53;;;;;;;16.10;4.35;;;24.00;79.60;;;;;;4975460;28;20679;-76
2023/07/04 06:38:44;;;;;;;13.93;4.03;;;24.40;81.60;;;;;;4977411;28;20247;-74
2023/07/04 06:41:33;;;;;;;8.15;3.60;;;26.10;77.90;;;;;;4968570;28;20370;-77
2023/07/04 06:44:22;;;;;;;12.88;4.22;;;26.90;75.50;;;;;;4983283;28;20231;-77
2023/07/04 06:47:11;;;;;;;11.13;4.47;;;27.10;72.70;;;;;;4981483;28;20299;-78
2023/07/04 06:50:02;;;;;;;14.38;4.57;;;26.60;74.20;;;;;;4978253;28;20768;-77
2023/07/04 06:52:52;;;;;;;11.20;4.40;;;26.20;77.40;;;;;;4979907;28;20225;-77
2023/07/04 06:55:41;;;;;;;9.18;4.13;;;26.30;73.50;;;;;;4978776;28;20921;-77
2023/07/04 06:58:31;;;;;;;11.30;3.85;;;26.00;72.50;;;;;;4996774;28;20931;-77
2023/07/04 07:01:21;;;;;;;11.48;4.10;;;25.70;73.20;;;;;;4991023;28;20599;-77
2023/07/04 07:04:12;;;;;;;9.35;3.80;;;25.50;72.10;;;;;;4981519;28;20228;-77
2023/07/04 07:07:02;;;;;;;10.82;4.28;;;25.50;72.90;;;;;;4981214;28;20234;-77
2023/07/04 07:09:53;;;;;;;8.98;4.10;;;25.30;69.50;;;;;;5004215;28;20316;-77
2023/07/04 07:12:42;;;;;;;9.68;3.67;;;25.50;74.20;;;;;;4986290;28;20238;-78
2023/07/04 07:15:31;;;;;;;6.72;4.22;;;25.70;73.00;;;;;;4976378;28;20243;-77
2023/07/04 07:18:20;;;;;;;8.55;4.30;;;26.40;67.00;;;;;;4984507;28;20710;-77
2023/07/04 07:21:10;;;;;;;7.38;4.38;;;26.40;70.60;;;;;;4999552;28;20222;-79
2023/07/04 07:24:02;;;;;;;10.15;4.60;;;26.50;70.40;;;;;;4984867;28;20569;-78
2023/07/04 07:26:52;;;;;;;14.88;5.10;;;26.60;67.30;;;;;;4980610;28;20214;-78
2023/07/04 07:29:47;;;;;;;11.98;5.80;;;26.80;68.90;;;;;;4978076;28;20273;-77
2023/07/04 07:32:36;;;;;;;11.25;5.70;;;26.50;64.20;;;;;;4979272;28;20226;-77
2023/07/04 07:35:25;;;;;;;12.80;5.90;;;26.50;63.70;;;;;;4983595;28;20894;-77
2023/07/04 07:38:14;;;;;;;10.80;5.25;;;26.80;63.40;;;;;;4985889;28;20330;-77
2023/07/04 07:41:04;;;;;;;10.35;5.55;;;27.20;63.30;;;;;;4968863;28;20224;-78
2023/07/04 07:43:55;;;;;;;8.65;5.38;;;27.70;62.80;;;;;;4981814;28;20309;-77
2023/07/04 07:46:45;;;;;;;9.55;5.68;;;28.00;62.50;;;;;;4988280;28;20237;-78
2023/07/04 07:49:34;;;;;;;10.68;5.40;;;28.50;66.20;;;;;;4977364;28;20226;-78
2023/07/04 07:52:23;;;;;;;11.10;5.95;;;28.80;61.50;;;;;;4982561;28;20231;-77
2023/07/04 07:55:14;;;;;;;9.88;5.82;;;28.80;60.40;;;;;;4981460;28;20439;-77
2023/07/04 07:58:03;;;;;;;8.63;4.75;;;29.10;60.00;;;;;;4980859;28;20227;-77
2023/07/04 08:00:53;;;;;;;11.35;5.60;;;29.50;65.30;;;;;;4977078;28;20224;-78
2023/07/04 08:03:43;;;;;;;9.45;5.38;;;29.80;62.80;;;;;;4976683;28;20238;-77
2023/07/04 08:06:36;;;;;;;10.45;6.32;;;29.80;62.30;;;;;;4971811;28;20294;-77
2023/07/04 08:09:25;;;;;;;9.85;5.82;;;30.10;61.80;;;;;;4979776;28;20261;-77
2023/07/04 08:12:15;;;;;;;8.88;5.13;;;30.30;63.00;;;;;;4977011;28;20364;-77
2023/07/04 08:15:05;;;;;;;11.05;4.95;;;30.60;63.00;;;;;;4990433;28;20222;-77
2023/07/04 08:17:55;;;;;;;13.80;5.30;;;30.50;60.50;;;;;;4985899;28;20733;-78
2023/07/04 08:20:44;;;;;;;10.48;4.65;;;30.80;62.50;;;;;;4980337;28;20234;-76
2023/07/04 08:23:33;;;;;;;9.85;4.97;;;30.70;58.80;;;;;;4981116;28;20231;-77
2023/07/04 08:26:24;;;;;;;9.02;4.82;;;31.00;59.30;;;;;;4988040;28;20408;-77
2023/07/04 08:29:14;;;;;;;9.57;4.20;;;31.10;61.70;;;;;;4991999;28;20242;-76
2023/07/04 08:32:03;;;;;;;12.25;5.38;;;30.70;56.60;;;;;;4985518;28;20744;-77
2023/07/04 08:34:57;;;;;;;8.30;4.55;;;30.40;56.90;;;;;;5000034;28;20306;-76
2023/07/04 08:37:46;;;;;;;10.60;4.80;;;30.80;58.80;;;;;;4985844;28;20245;-78
2023/07/04 08:40:35;;;;;;;7.85;4.65;;;31.10;60.90;;;;;;4982372;28;20281;-76
2023/07/04 08:43:29;;;;;;;10.02;4.68;;;31.20;57.20;;;;;;4983666;28;21103;-76
2023/07/04 08:46:21;;;;;;;10.27;4.50;;;31.40;56.20;;;;;;4994597;28;20246;-78
2023/07/04 08:49:23;;;;;;;12.55;4.10;;;31.10;57.10;;;;;;4985234;28;20223;-74
2023/07/04 08:52:21;;;;;;;10.57;4.38;;;30.70;55.90;;;;;;4977325;28;20728;-77
2023/07/04 08:55:14;;;;;;;7.65;4.10;;;31.00;56.40;;;;;;4988412;28;20246;-74
2023/07/04 08:58:03;;;;;;;6.35;4.20;;;30.90;56.10;;;;;;4994338;28;20281;-76
2023/07/04 09:00:56;;;;;;;8.38;4.38;;;31.00;56.00;;;;;;4990984;28;20230;-74
2023/07/04 09:03:51;;;;;;;7.68;4.43;;;31.50;56.50;;;;;;4993424;28;20256;-73
2023/07/04 09:06:48;;;;;;;9.85;4.70;;;31.50;55.70;;;;;;4981607;28;20436;-79
2023/07/04 09:09:47;;;;;;;8.88;3.90;;;31.50;56.70;;;;;;4987395;28;20543;-80
2023/07/04 09:12:40;;;;;;;8.02;4.03;;;32.20;61.00;;;;;;4980278;28;20361;-78
2023/07/04 09:15:34;;;;;;;13.07;4.45;;;32.30;55.00;;;;;;4999661;28;20297;-78
2023/07/04 09:18:34;;;;;;;8.45;4.13;;;32.20;55.30;;;;;;4993343;28;20701;-81
2023/07/04 09:21:25;;;;;;;11.18;3.70;;;32.30;56.40;;;;;;4982456;28;20230;-77
2023/07/04 09:24:15;;;;;;;7.38;4.28;;;32.10;54.70;;;;;;4987215;28;20225;-79
2023/07/04 09:27:07;;;;;;;11.05;4.47;;;32.20;58.00;;;;;;4981711;28;20215;-77
2023/07/04 09:29:58;;;;;;;12.30;4.40;;;31.60;55.60;;;;;;4989658;28;20929;-79
2023/07/04 09:32:48;;;;;;;10.27;4.32;;;32.00;56.40;;;;;;4981082;28;20255;-81
2023/07/04 09:35:38;;;;;;;7.32;3.75;;;32.00;57.30;;;;;;4974001;28;20883;-78
2023/07/04 09:38:48;;;;;;;8.90;4.18;;;32.00;55.10;;;;;;4973818;28;20246;-76
2023/07/04 09:41:40;;;;;;;10.52;4.45;;;32.60;56.00;;;;;;4979222;28;20238;-77
2023/07/04 09:44:50;;;;;;;9.13;4.15;;;33.20;54.60;;;;;;4985152;28;21019;-78
2023/07/04 09:47:45;;;;;;;8.82;4.25;;;33.80;53.80;;;;;;4969241;28;20221;-75
2023/07/04 09:50:37;;;;;;;8.68;4.03;;;33.70;53.90;;;;;;4971409;28;20237;-75
2023/07/04 09:53:26;;;;;;;9.63;4.18;;;34.90;56.10;;;;;;4982595;28;20258;-79
2023/07/04 09:56:26;;;;;;;9.10;4.05;;;35.70;54.30;;;;;;4981606;28;20289;-82
2023/07/04 09:59:18;;;;;;;9.80;4.15;;;36.90;53.70;;;;;;4988072;28;20658;-80
2023/07/04 10:02:18;;;;;;;8.68;4.13;;;37.30;53.90;;;;;;4980694;28;20353;-78
2023/07/04 10:05:10;;;;;;;10.65;4.43;;;35.80;52.90;;;;;;4995699;28;20296;-82
2023/07/04 10:08:05;;;;;;;8.43;4.20;;;37.30;54.30;;;;;;4989777;28;20222;-82
2023/07/04 10:10:57;;;;;;;12.15;4.90;;;37.50;50.10;;;;;;4989259;28;20479;-82
2023/07/04 10:13:59;;;;;;;11.40;4.70;;;37.50;49.50;;;;;;4974622;28;20219;-81
2023/07/04 10:16:50;;;;;;;10.30;4.63;;;37.90;49.50;;;;;;4996301;28;20389;-80
2023/07/04 10:19:46;;;;;;;9.68;4.25;;;38.20;49.10;;;;;;4996700;28;20222;-80
2023/07/04 10:22:38;;;;;;;11.50;4.25;;;37.90;48.40;;;;;;4976339;28;20382;-77
2023/07/04 10:25:29;;;;;;;10.43;4.60;;;37.40;48.10;;;;;;4990810;28;20353;-80
2023/07/04 10:28:25;;;;;;;9.73;4.30;;;38.90;50.30;;;;;;4983027;28;20256;-81
2023/07/04 10:31:21;;;;;;;11.98;4.60;;;40.90;50.10;;;;;;4983738;28;20225;-82
2023/07/04 10:34:15;;;;;;;11.13;4.72;;;41.30;49.20;;;;;;4983644;28;20232;-82
2023/07/04 10:37:08;;;;;;;9.55;5.05;;;41.60;44.80;;;;;;4970647;28;20273;-81
2023/07/04 10:40:02;;;;;;;14.60;5.53;;;41.60;44.90;;;;;;4981409;28;20222;-82
2023/07/04 10:42:57;;;;;;;11.45;4.80;;;41.90;45.80;;;;;;4974573;28;20260;-80
2023/07/04 10:45:48;;;;;;;10.25;4.60;;;42.70;46.40;;;;;;4970203;28;20249;-80
2023/07/04 10:48:53;;;;;;;8.88;5.25;;;43.20;45.10;;;;;;4978470;28;20245;-82
2023/07/04 10:51:45;;;;;;;12.02;6.47;;;42.90;43.30;;;;;;4983599;28;20226;-81
2023/07/04 10:54:35;;;;;;;10.55;5.20;;;43.20;43.10;;;;;;4968489;28;20723;-82
2023/07/04 10:57:28;;;;;;;9.63;5.18;;;43.60;45.30;;;;;;4997794;28;20234;-81
2023/07/04 11:00:23;;;;;;;7.32;4.97;;;43.10;41.70;;;;;;4983173;28;20242;-81
2023/07/04 11:03:18;;;;;;;11.95;5.63;;;42.40;42.00;;;;;;4979055;28;20350;-86
2023/07/04 11:06:11;;;;;;;7.25;4.68;;;42.40;44.10;;;;;;4986564;28;20237;-81
2023/07/04 11:09:04;;;;;;;8.07;4.57;;;42.80;41.50;;;;;;4982523;28;20298;-81
2023/07/04 11:12:02;;;;;;;8.23;4.57;;;42.50;41.30;;;;;;4981582;28;20226;-80
2023/07/04 11:14:51;;;;;;;7.75;4.40;;;43.10;43.00;;;;;;4983965;28;20226;-81
2023/07/04 11:17:43;;;;;;;8.85;5.15;;;43.70;41.80;;;;;;4976501;28;20308;-79
2023/07/04 11:20:54;;;;;;;8.95;5.40;;;43.90;40.20;;;;;;4961973;28;20230;-81
2023/07/04 11:23:51;;;;;;;8.80;4.93;;;42.40;41.50;;;;;;4969582;28;20222;-80
2023/07/04 11:26:55;;;;;;;10.65;5.20;;;43.00;41.40;;;;;;4986264;28;20897;-81
2023/07/04 11:29:52;;;;;;;9.80;6.13;;;42.70;39.50;;;;;;4988917;28;20228;-81
2023/07/04 11:32:57;;;;;;;10.55;5.53;;;42.40;39.30;;;;;;4978729;28;20234;-80
2023/07/04 11:35:46;;;;;;;8.05;5.55;;;43.00;39.70;;;;;;4966540;28;20219;-81
2023/07/04 11:38:41;;;;;;;9.63;5.57;;;43.30;41.10;;;;;;4986801;28;20259;-80
2023/07/04 11:41:33;;;;;;;8.95;5.32;;;45.80;39.30;;;;;;4984374;28;20229;-81
2023/07/04 11:44:27;;;;;;;12.18;6.10;;;47.40;37.20;;;;;;4988561;28;20241;-81
2023/07/04 11:47:33;;;;;;;8.77;5.55;;;48.40;37.60;;;;;;4982080;28;20708;-81
2023/07/04 11:50:33;;;;;;;12.25;6.40;;;48.40;37.60;;;;;;4977116;28;20225;-82
2023/07/04 11:53:26;;;;;;;13.63;6.28;;;47.70;35.30;;;;;;4983483;28;20230;-82
2023/07/04 11:56:17;;;;;;;6.90;5.57;;;47.30;36.10;;;;;;4981813;28;20253;-81
2023/07/04 11:59:27;;;;;;;10.23;5.15;;;43.00;36.90;;;;;;4983862;28;20233;-81
2023/07/04 12:02:33;;;;;;;9.43;5.22;;;46.10;36.60;;;;;;4989099;28;20654;-81
2023/07/04 12:05:32;;;;;;;13.38;6.13;;;46.80;37.70;;;;;;4977373;28;20356;-80
2023/07/04 12:08:29;;;;;;;8.73;5.60;;;48.40;37.50;;;;;;4984766;28;20226;-78
2023/07/04 12:11:28;;;;;;;8.15;5.80;;;47.40;35.00;;;;;;4982854;28;20249;-78
2023/07/04 12:14:18;;;;;;;9.40;6.25;;;48.10;35.00;;;;;;4983380;28;20231;-79
2023/07/04 12:17:08;;;;;;;8.25;6.05;;;47.20;33.80;;;;;;4984628;28;20313;-79
2023/07/04 12:20:09;;;;;;;10.88;6.10;;;46.90;35.50;;;;;;4998234;28;20230;-78
2023/07/04 12:23:01;;;;;;;9.02;5.70;;;48.10;34.80;;;;;;4967149;28;20225;-80
2023/07/04 12:25:52;;;;;;;7.60;5.20;;;49.10;33.50;;;;;;4977881;28;20223;-77
2023/07/04 12:28:47;;;;;;;10.32;5.40;;;49.90;33.50;;;;;;4973611;28;20306;-78
2023/07/04 12:31:36;;;;;;;7.68;5.47;;;50.80;32.00;;;;;;4978784;28;20229;-79
2023/07/04 12:34:28;;;;;;;9.07;6.65;;;50.50;33.30;;;;;;4984737;28;20775;-79
2023/07/04 12:37:27;;;;;;;7.80;6.15;;;48.90;32.70;;;;;;4983240;28;20249;-79
2023/07/04 12:40:19;;;;;;;11.13;6.18;;;49.80;32.70;;;;;;4990635;28;20244;-79
2023/07/04 12:43:09;;;;;;;12.18;5.90;;;49.90;32.60;;;;;;4984747;28;20223;-81
2023/07/04 12:46:11;;;;;;;10.18;6.05;;;49.50;32.90;;;;;;4998146;28;20215;-81
2023/07/04 12:49:06;;;;;;;9.63;6.18;;;48.50;31.60;;;;;;4987412;28;20226;-79
2023/07/04 12:51:59;;;;;;;13.35;6.38;;;42.30;34.50;;;;;;4975738;28;20668;-79
2023/07/04 12:54:50;;;;;;;9.70;6.38;;;40.50;37.00;;;;;;4973219;28;20401;-79
2023/07/04 12:57:39;;;;;;;9.48;6.70;;;41.00;37.20;;;;;;4994983;28;20247;-79
2023/07/04 13:00:33;;;;;;;10.57;6.93;;;37.30;39.90;;;;;;4987816;28;20252;-78
2023/07/04 13:03:25;;;;;;;10.43;7.90;;;35.70;41.90;;;;;;4997157;28;20372;-79
2023/07/04 13:06:20;;;;;;;9.27;8.20;;;34.40;41.50;;;;;;4985371;28;20312;-82
2023/07/04 13:09:11;;;;;;;12.75;8.88;;;34.00;43.20;;;;;;4984770;28;20233;-82
2023/07/04 13:12:02;;;;;;;11.90;9.15;;;33.60;44.70;;;;;;4993177;28;20218;-80
2023/07/04 13:14:51;;;;;;;14.93;10.10;;;33.20;43.20;;;;;;4993899;28;20281;-80
2023/07/04 13:17:52;;;;;;;10.45;9.38;;;32.50;43.90;;;;;;4994347;28;20748;-82
2023/07/04 13:20:56;;;;;;;14.73;8.43;;;32.20;45.90;;;;;;4978157;28;20234;-79
2023/07/04 13:23:45;;;;;;;11.30;8.40;;;32.20;45.80;;;;;;4980098;28;20711;-79
2023/07/04 13:26:55;;;;;;;18.15;10.98;;;31.90;47.40;;;;;;4980689;28;20226;-80
2023/07/04 13:30:02;;;;;;;14.35;8.35;;;31.90;50.20;;;;;;4966757;28;20248;-79
2023/07/04 13:32:54;;;;;;;12.38;8.02;;;31.80;49.20;;;;;;4981590;28;20386;-79
2023/07/04 13:35:48;;;;;;;13.52;9.55;;;31.60;48.10;;;;;;4972369;28;20249;-76
2023/07/04 13:38:37;;;;;;;12.27;9.38;;;30.90;48.30;;;;;;4989046;28;20237;-74
2023/07/04 13:41:29;;;;;;;14.13;9.98;;;31.10;48.80;;;;;;4976778;28;20301;-74
2023/07/04 13:44:18;;;;;;;11.75;9.68;;;31.30;48.60;;;;;;4975142;28;20223;-75
2023/07/04 13:47:15;;;;;;;14.93;9.90;;;31.00;48.20;;;;;;4977547;28;20305;-76
2023/07/04 13:50:06;;;;;;;14.00;10.23;;;30.50;48.80;;;;;;4983917;28;20230;-76
2023/07/04 13:52:55;;;;;;;14.40;10.63;;;30.40;49.00;;;;;;4980872;28;20227;-74
2023/07/04 13:56:04;;;;;;;15.68;10.07;;;30.50;48.80;;;;;;4993938;28;20230;-79
2023/07/04 13:58:53;;;;;;;17.88;10.32;;;30.70;50.20;;;;;;4987704;28;20222;-77
2023/07/04 14:01:42;;;;;;;16.75;11.68;;;30.70;50.40;;;;;;4983067;28;20960;-80
2023/07/04 14:04:36;;;;;;;19.08;12.73;;;30.70;50.50;;;;;;4982106;28;20232;-75
2023/07/04 14:07:28;;;;;;;14.90;12.63;;;30.60;50.10;;;;;;4987178;28;20256;-78
2023/07/04 14:10:18;;;;;;;16.55;12.55;;;30.60;50.40;;;;;;4982270;28;20237;-73
2023/07/04 14:13:21;;;;;;;18.77;12.35;;;30.60;50.10;;;;;;4982577;28;20589;-75
2023/07/04 14:16:14;;;;;;;18.20;12.25;;;30.40;49.20;;;;;;4981258;28;20602;-76
2023/07/04 14:19:05;;;;;;;14.27;12.13;;;30.20;49.10;;;;;;4982548;28;20385;-76
2023/07/04 14:21:58;;;;;;;14.32;12.20;;;29.80;49.10;;;;;;4986805;28;20712;-78
2023/07/04 14:24:47;;;;;;;16.67;12.25;;;29.90;50.10;;;;;;4974915;28;21023;-76
2023/07/04 14:27:37;;;;;;;20.73;11.57;;;30.00;50.10;;;;;;4980818;28;20218;-77
2023/07/04 14:30:27;;;;;;;18.85;11.55;;;29.90;49.80;;;;;;4972706;28;20234;-77
2023/07/04 14:33:17;;;;;;;16.20;12.55;;;30.00;51.50;;;;;;4992796;28;20222;-77
2023/07/04 14:36:06;;;;;;;15.95;12.00;;;29.90;51.60;;;;;;4982075;28;20912;-77
2023/07/04 14:38:56;;;;;;;15.90;11.82;;;29.90;52.10;;;;;;4996710;28;20324;-77
2023/07/04 14:41:48;;;;;;;20.20;12.15;;;29.90;53.80;;;;;;4979620;28;20229;-76
2023/07/04 14:44:41;;;;;;;15.25;11.68;;;29.90;53.10;;;;;;4975989;28;20232;-77